EGPD/ABZ METAR and TAF weather

Enter ICAO airport designator
Station Type Date Time Source
EGPD METAR 2021/09/27 07:20 UTC NOAA

EGPD 270720Z 13008KT 6000 -RA BKN004 14/13 Q0995 RERA


Station Type Date Time Source
EGPD Decoded METAR 2021/09/27 07:20 UTC NOAA

Aberdeen / Dyce, United Kingdom (EGPD) 57-12N 002-13W 0M
Sep 27, 2021 - 03:20 AM EDT / 2021.09.27 0720 UTC
Wind: from the SE (130 degrees) at 9 MPH (8 KT):0
Visibility: 3 mile(s):0
Sky conditions: mostly cloudy
Weather: light rain
Temperature: 57 F (14 C)
Dew Point: 55 F (13 C)
Relative Humidity: 93%
Pressure (altimeter): 29.38 in. Hg (0995 hPa)
ob: EGPD 270720Z 13008KT 6000 -RA BKN004 14/13 Q0995 RERA
cycle: 7

Station Type Date Time Source
EGPD TAF 2021/09/27 06:09 UTC NOAA

TAF EGPD 270503Z 2706/2806 34005KT 9999 FEW015 SCT025
TEMPO 2706/2714 5000 RA BKN008 PROB30
TEMPO 2706/2710 2000 +RA RADZ BKN004 PROB40
TEMPO 2708/2710 16022G35KT PROB30
TEMPO 2710/2712 27016G26KT
BECMG 2711/2714 22008KT

Example: see airport list